Weather

Current Metar report

KALM 131135Z AUTO 00000KT 10SM CLR 25/03 A3009 RMK AO2


Metar history is on Flightaware.

KALM AWOS Info
Phone Number: 575-439-4112
Freq: 127.825 MHz

KALM Weather Links

Soaring Forecasts Links